AirNav   Everest Fuels
 
 1663 users online  

SC39 Green Pond Airport
Woodruff, South Carolina, USA

GOING TO WOODRUFF?


FAA INFORMATION EFFECTIVE 10 SEPTEMBER 2020

Location

FAA Identifier: SC39
Lat/Long: 34-49-00.0000N 082-05-00.0000W
34-49.000000N 082-05.000000W
34.8166667,-82.0833333
(estimated)
Elevation: 788 ft. / 240 m (estimated)
From city: 6 miles NE of WOODRUFF, SC
Time zone: UTC -4 (UTC -5 during Standard Time)
Zip code: 29681

Airport Operations

Airport use: Private use. Permission required prior to landing
Activation date: 06/1998
Control tower: no
ARTCC: ATLANTA CENTER
FSS: ANDERSON FLIGHT SERVICE STATION
Attendance: UNATNDD
Wind indicator: yes
Segmented circle: no

Airport Communications

WX ASOS at GSP (8 nm NW): 134.25 (864-879-0614)
WX AWOS-3 at SPA (9 nm NE): 133.925 (864-587-2529)
WX ASOS at GMU (13 nm W): 127.075 (864-239-0014)
WX AWOS-3 at GYH (15 nm W): 127.325 (864-277-5674)
WX AWOS-3 at LUX (20 nm S): 123.975 (864-682-3639)

Nearby radio navigation aids

VOR radial/distance  VOR name  Freq  Var
SPAr213/15.1SPARTANBURG VORTAC115.7002W
GRDr007/34.1GREENWOOD VORTAC115.5001W
SUGr168/36.5SUGARLOAF MOUNTAIN VORTAC112.2002W

 
NDB name  Hdg/Dist  Freq  Var  ID
FAIRMONT228/7.024805WFRT ..-. .-. -
JUDKY086/13.352105WGM --. --
UNION COUNTY296/23.232606WUOT ..- --- -
BROAD RIVER152/33.337907WBRA -... .-. .-
CORONACA007/33.823907WGIW --. .. .--
FIRST RIVER228/35.441706WSLP ... .-.. .--.
ENOREE331/37.527807WEOE . --- .

Airport Services

Runway Information

Runway 12/30

Dimensions: 2850 x 85 ft. / 869 x 26 m
Surface: turf
RUNWAY 12  RUNWAY 30
Traffic pattern: leftleft

Airport Ownership and Management from official FAA records

Ownership: Privately-owned
Owner: TIM E. BROWN
1906 GREEN POND ROAD
WOODRUFF, SC 29388
Phone 854-542-7253
Manager: TIM E. BROWN
1906 GREEN POND ROAD
WOODRUFF, SC 29388
Phone 854-542-7253

Airport Operational Statistics

Aircraft based on the field: 4
Single engine airplanes: 2
Helicopters: 2
    

Additional Remarks

FOR CD CTC ATLANTA ARTCC AT 770-210-7692.

Instrument Procedures

There are no published instrument procedures at SC39.

Some nearby airports with instrument procedures:

KGSP - Greenville Spartanburg International Airport (8 nm NW)
KSPA - Spartanburg Downtown Memorial Airport/Simpson Field (8 nm NE)
KGMU - Greenville Downtown Airport (14 nm W)
KGYH - Donaldson Field Airport (15 nm W)
KLUX - Laurens County Airport (20 nm S)
 
Loc | Ops | Rwys | IFR | FBO | Links
Com | Nav | Svcs | Stats | Notes
Area around SC39 (Green Pond Airport)
 
Road maps at: MapQuest Bing Google
 
Aerial photo
No photo
 
Sectional chart

 
Airport distance calculator
Flying to Green Pond Airport? Find the distance to fly.

From to SC39

Sunrise and sunset
Times for 18-Sep-2020
 Local
(UTC-4)
 Zulu
(UTC)
Morning civil twilight06:5010:50
Sunrise07:1511:15
Sunset19:2923:29
Evening civil twilight19:5423:54

Current date and time
Zulu (UTC)  18-Sep-2020 17:19:21
Local (UTC-4)  18-Sep-2020 13:19:21
 
METAR
KGSP 
8nm NW 
181653Z 02010KT 10SM CLR 25/17 A2996 RMK AO2 SLP136 T02500172
KGMU 
14nm W 
181653Z 02010KT 10SM CLR 26/17 A2997 RMK AO2 SLP137 T02610172
KSPA 
15nm NE 
181655Z AUTO 01009KT 10SM OVC037 25/16 A2995 RMK AO2
KGYH 
15nm W 
181647Z 03011G18KT 10SM SCT035 26/17 A2995
KLUX 
20nm S 
181655Z AUTO 05009G17KT 010V070 10SM SCT029 BKN036 25/18 A2995 RMK AO2
TAF
KGSP 
8nm NW 
181124Z 1812/1912 02011KT P6SM OVC035 FM181400 02011G19KT P6SM SCT045 BKN070 FM190000 03008KT P6SM FEW050 BKN250 FM190600 03011KT P6SM BKN050
KGMU 
14nm W 
181602Z 1816/1912 04010G18KT P6SM SCT045 BKN070 FM190000 03007KT P6SM FEW050 BKN250 FM190600 04012KT P6SM BKN045
NOTAMs
Click for the latest NOTAMs
NOTAMs are issued by the DoD/FAA and will open in a separate window not controlled by AirNav.

 

 
 

Would you like to see your business listed on this page?

 If your business provides an interesting product or service to pilots, flight crews, aircraft, or users of the Green Pond Airport, you should consider listing it here.  To start the listing process, click on the button below
 
Add a business
 

Other Pages about Green Pond Airport

Update a link
 
Copyright © AirNav, LLC. All rights reserved. Privacy Policy  Contact